North Stonington, Connecticut
Current Conditions -  °F | °C
As of 3:53 AM on Saturday 22 Nov 2014 (Local Time) from KWST Reporting Station
Clear Clear  
Wind Chill: -6°   Ceiling: Unl
Heat Index: -6°   Visibility: 10mi
Dew Point: -11°   Wind: 0mph
Humidity: 66%   Direction: NA
Pressure: 30.47"   Gusts: NA
Location:  41.44°N, 71.88°W
Report Text: KWST 220853Z AUTO 00000KT 10SM CLR M06/M11 A3047 RMK AO2 SLP317 T10561111 58004 $
Loading
Personal Weather Stations






























Interactive Weather Map New forecast layout! Learn more

10-Day Weather Forecast

Advertisements
Track Severe Weather on mobile